createdAt,value
2022-11-02T00:01:51.396Z,97768.03
2022-11-02T00:06:56.187Z,97769.09
2022-11-02T00:11:59.702Z,97765.22
2022-11-02T00:17:03.175Z,97757.28
2022-11-02T00:22:07.930Z,97765.72
2022-11-02T00:27:11.410Z,97767.66
2022-11-02T00:32:14.774Z,97769.59
2022-11-02T00:37:19.781Z,97771.34
2022-11-02T00:42:23.210Z,97767.22
2022-11-02T00:47:26.545Z,97774.25
2022-11-02T00:52:32.593Z,97780.88
2022-11-02T00:57:36.162Z,97779.56
2022-11-02T01:02:40.164Z,97787.44
2022-11-02T01:07:45.161Z,97774.72
2022-11-02T01:12:48.422Z,97777.78
2022-11-02T01:17:51.798Z,97774.75
2022-11-02T01:22:56.441Z,97770.97
2022-11-02T01:27:59.716Z,97773.88
2022-11-02T01:33:05.956Z,97775.44
2022-11-02T01:38:11.598Z,97766.50
2022-11-02T01:43:23.226Z,97770.69
2022-11-02T01:48:32.071Z,97773.25
2022-11-02T01:53:40.637Z,97754.66
2022-11-02T01:58:46.011Z,97763.50
2022-11-02T02:03:51.374Z,97756.34
2022-11-02T02:09:03.026Z,97753.59
2022-11-02T02:14:09.487Z,97737.75
2022-11-02T02:19:31.916Z,97740.91
2022-11-02T02:24:50.538Z,97740.38
2022-11-02T02:30:03.860Z,97734.28
2022-11-02T02:35:16.284Z,97729.25
2022-11-02T02:40:23.772Z,97734.47
2022-11-02T02:45:34.747Z,97730.47
2022-11-02T02:50:40.685Z,97726.41
2022-11-02T02:55:47.310Z,97745.78
2022-11-02T03:00:53.958Z,97724.81
2022-11-02T03:06:06.198Z,97724.25
2022-11-02T03:11:15.090Z,97706.19
2022-11-02T03:16:37.258Z,97709.88
2022-11-02T03:21:44.770Z,97709.31
2022-11-02T03:26:52.916Z,97716.53
2022-11-02T03:32:04.354Z,97711.41
2022-11-02T03:37:15.113Z,97713.06
2022-11-02T03:42:22.894Z,97720.47
2022-11-02T03:47:33.243Z,97725.34
2022-11-02T03:52:42.982Z,97713.44
2022-11-02T03:57:50.491Z,97713.38
2022-11-02T04:03:02.703Z,97697.56
2022-11-02T04:08:22.282Z,97708.06
2022-11-02T04:13:53.449Z,97711.84
2022-11-02T04:19:15.696Z,97719.25
2022-11-02T04:24:37.454Z,97707.25
2022-11-02T04:29:41.090Z,97706.88
2022-11-02T04:34:45.980Z,97714.84
2022-11-02T04:39:50.995Z,97702.84
2022-11-02T04:44:56.426Z,97703.22
2022-11-02T04:50:02.151Z,97711.44
2022-11-02T04:55:06.877Z,97702.81
2022-11-02T05:00:12.901Z,97709.50
2022-11-02T05:05:19.414Z,97713.16
2022-11-02T05:10:25.347Z,97715.50
2022-11-02T05:15:29.502Z,97713.13
2022-11-02T05:20:35.710Z,97695.31
2022-11-02T05:25:39.546Z,97703.75
2022-11-02T05:30:43.231Z,97710.41
2022-11-02T05:35:48.456Z,97710.72
2022-11-02T05:40:56.207Z,97730.22
2022-11-02T05:46:03.489Z,97743.69
2022-11-02T05:51:11.050Z,97750.41
2022-11-02T05:56:14.718Z,97731.94
2022-11-02T06:01:18.139Z,97730.75
2022-11-02T06:06:23.013Z,97726.81
2022-11-02T06:11:26.363Z,97749.19
2022-11-02T06:16:29.850Z,97751.25
2022-11-02T06:21:34.652Z,97759.59
2022-11-02T06:26:38.105Z,97772.19
2022-11-02T06:31:41.625Z,97766.69
2022-11-02T06:36:46.309Z,97780.69
2022-11-02T06:41:49.717Z,97789.94
2022-11-02T06:46:53.037Z,97795.38
2022-11-02T06:51:58.924Z,97812.72
2022-11-02T06:57:02.283Z,97815.50
2022-11-02T07:02:05.833Z,97819.25
2022-11-02T07:07:10.634Z,97826.94
2022-11-02T07:12:14.110Z,97852.38
2022-11-02T07:17:17.580Z,97870.44
2022-11-02T07:22:22.434Z,97877.09
2022-11-02T07:27:25.786Z,97871.78
2022-11-02T07:32:29.301Z,97876.13
2022-11-02T07:37:34.251Z,97875.47
2022-11-02T07:42:37.719Z,97882.13
2022-11-02T07:47:44.304Z,97874.59
2022-11-02T07:52:50.761Z,97882.47
2022-11-02T07:57:54.940Z,97880.56
2022-11-02T08:02:59.360Z,97888.22
2022-11-02T08:08:06.558Z,97884.28
2022-11-02T08:13:11.699Z,97884.72
2022-11-02T08:18:16.819Z,97889.47
2022-11-02T08:23:21.952Z,97885.81
2022-11-02T08:28:28.573Z,97889.66
2022-11-02T08:33:32.048Z,97879.66
2022-11-02T08:38:36.774Z,97888.78
2022-11-02T08:43:40.237Z,97888.94
2022-11-02T08:48:43.599Z,97885.50
2022-11-02T08:53:51.615Z,97891.56
2022-11-02T08:58:55.411Z,97901.16
2022-11-02T09:03:58.975Z,97898.16
2022-11-02T09:09:03.775Z,97910.72
2022-11-02T09:14:07.916Z,97899.78
2022-11-02T09:19:11.437Z,97898.47
2022-11-02T09:24:16.427Z,97919.59
2022-11-02T09:29:20.034Z,97934.91
2022-11-02T09:34:23.543Z,97923.25
2022-11-02T09:39:28.355Z,97917.25
2022-11-02T09:44:44.542Z,97915.66
2022-11-02T09:49:48.503Z,97931.84
2022-11-02T09:54:55.351Z,97926.06
2022-11-02T09:59:59.130Z,97931.50
2022-11-02T10:05:16.973Z,97925.06
2022-11-02T10:10:28.128Z,97928.09
2022-11-02T10:15:39.117Z,97928.38
2022-11-02T10:20:46.914Z,97926.97
2022-11-02T10:25:52.643Z,97936.19
2022-11-02T10:30:56.205Z,97926.66
2022-11-02T10:36:19.832Z,97943.59
2022-11-02T10:41:50.697Z,97939.94
2022-11-02T10:47:05.563Z,97945.06
2022-11-02T10:52:13.008Z,97947.81
2022-11-02T10:57:24.141Z,97957.44
2022-11-02T11:02:27.574Z,97953.34
2022-11-02T11:07:30.831Z,97953.03
2022-11-02T11:12:41.020Z,97944.72
2022-11-02T11:23:20.565Z,97941.22
2022-11-02T11:28:27.866Z,97960.16
2022-11-02T11:33:32.432Z,97967.03
2022-11-02T11:38:35.874Z,97969.56
2022-11-02T11:43:41.793Z,97957.59
2022-11-02T11:48:48.788Z,97954.66
2022-11-02T11:54:23.052Z,97960.97
2022-11-02T11:59:31.765Z,97954.06
2022-11-02T12:04:37.088Z,97938.59
2022-11-02T12:09:49.078Z,97937.28
2022-11-02T12:15:06.619Z,97934.66
2022-11-02T12:20:20.873Z,97919.16
2022-11-02T12:25:45.668Z,97926.22
2022-11-02T12:31:02.004Z,97938.59
2022-11-02T12:36:13.652Z,97924.47
2022-11-02T12:41:40.325Z,97923.19
2022-11-02T12:46:53.571Z,97928.22
2022-11-02T12:52:08.096Z,97923.91
2022-11-02T12:57:15.197Z,97929.47
2022-11-02T13:02:26.650Z,97923.91
2022-11-02T13:07:35.316Z,97939.31
2022-11-02T13:12:39.186Z,97928.69
2022-11-02T13:17:47.905Z,97931.63
2022-11-02T13:22:57.092Z,97932.25
2022-11-02T13:28:07.420Z,97943.91
2022-11-02T13:33:18.472Z,97951.03
2022-11-02T13:38:32.100Z,97951.00
2022-11-02T13:44:13.996Z,97952.94
2022-11-02T13:49:24.718Z,97947.19
2022-11-02T13:54:31.560Z,97934.81
2022-11-02T13:59:43.033Z,97939.28
2022-11-02T14:04:49.335Z,97943.78
2022-11-02T14:09:58.764Z,97951.88
2022-11-02T14:15:48.289Z,97960.03
2022-11-02T14:20:53.152Z,97963.81
2022-11-02T14:25:58.203Z,97960.25
2022-11-02T14:31:41.198Z,97970.94
2022-11-02T14:37:00.526Z,97957.00
2022-11-02T14:42:30.732Z,97961.00
2022-11-02T14:47:35.836Z,97956.09
2022-11-02T14:52:44.052Z,97965.66
2022-11-02T14:57:54.112Z,97949.72
2022-11-02T15:02:58.644Z,97940.13
2022-11-02T15:08:06.644Z,97940.13
2022-11-02T15:13:46.579Z,97946.75
2022-11-02T15:18:50.088Z,97947.84
2022-11-02T15:24:05.400Z,97951.53
2022-11-02T15:29:17.574Z,97942.97
2022-11-02T15:34:21.935Z,97948.38
2022-11-02T15:39:27.584Z,97944.78
2022-11-02T15:44:56.933Z,97946.34
2022-11-02T15:50:16.220Z,97946.78
2022-11-02T15:55:25.626Z,97958.81
2022-11-02T16:00:31.140Z,97953.22
2022-11-02T16:05:42.985Z,97947.06
2022-11-02T16:10:49.473Z,97956.63
2022-11-02T16:16:05.779Z,97968.16
2022-11-02T16:21:13.743Z,97955.59
2022-11-02T16:26:22.303Z,97969.31
2022-11-02T16:31:31.264Z,97965.97
2022-11-02T16:36:38.559Z,97951.97
2022-11-02T16:41:49.269Z,97963.31
2022-11-02T16:46:56.584Z,97981.03
2022-11-02T16:52:01.311Z,97978.19
2022-11-02T16:57:13.305Z,97976.16
2022-11-02T17:02:17.473Z,97989.00
2022-11-02T17:07:26.794Z,97998.03
2022-11-02T17:12:35.474Z,97996.53
2022-11-02T17:17:40.730Z,97993.38
2022-11-02T17:22:55.561Z,98003.38
2022-11-02T17:28:02.505Z,98007.41
2022-11-02T17:33:10.213Z,98009.94
2022-11-02T17:38:14.139Z,98012.19
2022-11-02T17:43:20.801Z,98003.16
2022-11-02T17:48:25.446Z,97986.50
2022-11-02T17:53:29.006Z,97988.13
2022-11-02T17:58:33.859Z,97989.88
2022-11-02T18:03:37.246Z,98003.44
2022-11-02T18:08:54.455Z,97992.13
2022-11-02T18:13:59.422Z,97984.09
2022-11-02T18:19:02.772Z,97994.94
2022-11-02T18:24:06.772Z,97984.41
2022-11-02T18:29:11.654Z,97981.53
2022-11-02T18:34:15.370Z,97975.09
2022-11-02T18:39:20.249Z,97977.41
2022-11-02T18:44:25.447Z,97963.69
2022-11-02T18:49:29.186Z,97978.25
2022-11-02T18:54:33.255Z,97973.91
2022-11-02T18:59:39.711Z,97964.44
2022-11-02T19:04:43.285Z,97976.56
2022-11-02T19:09:46.805Z,97976.56
2022-11-02T19:14:54.258Z,97966.06
2022-11-02T19:19:58.314Z,97966.69
2022-11-02T19:25:02.576Z,97968.00
2022-11-02T19:30:09.857Z,97966.25
2022-11-02T19:35:13.282Z,97972.53
2022-11-02T19:40:18.192Z,97968.16
2022-11-02T19:45:23.358Z,97972.84
2022-11-02T19:50:26.612Z,97971.78
2022-11-02T19:55:30.763Z,97973.41
2022-11-02T20:00:36.391Z,97973.56
2022-11-02T20:05:40.312Z,97965.94
2022-11-02T20:10:44.729Z,97984.94
2022-11-02T20:15:49.747Z,97981.06
2022-11-02T20:20:53.535Z,97980.53
2022-11-02T20:26:02.207Z,97981.91
2022-11-02T20:31:11.220Z,97980.53
2022-11-02T20:36:15.763Z,97970.41
2022-11-02T20:41:21.472Z,97966.41
2022-11-02T20:46:47.448Z,97962.13
2022-11-02T20:51:52.483Z,97968.06
2022-11-02T20:56:56.052Z,97977.53
2022-11-02T21:02:01.182Z,97967.53
2022-11-02T21:07:04.860Z,97966.91
2022-11-02T21:12:26.271Z,97959.97
2022-11-02T21:17:31.064Z,97965.84
2022-11-02T21:22:34.765Z,97963.94
2022-11-02T21:27:38.241Z,97952.47
2022-11-02T21:32:44.063Z,97953.44
2022-11-02T21:37:47.354Z,97955.28
2022-11-02T21:42:50.739Z,97959.19
2022-11-02T21:47:55.728Z,97945.22
2022-11-02T21:52:59.479Z,97946.06
2022-11-02T21:58:03.586Z,97944.22
2022-11-02T22:03:08.802Z,97933.97
2022-11-02T22:08:30.137Z,97931.44
2022-11-02T22:13:34.198Z,97946.13
2022-11-02T22:18:39.487Z,97932.13
2022-11-02T22:23:43.235Z,97927.50
2022-11-02T22:28:47.381Z,97908.16
2022-11-02T22:33:53.639Z,97903.44
2022-11-02T22:38:58.299Z,97921.78
2022-11-02T22:44:04.972Z,97918.13
2022-11-02T22:49:11.365Z,97907.72
2022-11-02T22:54:17.013Z,97903.34
2022-11-02T22:59:20.904Z,97883.75
2022-11-02T23:04:25.633Z,97885.44
2022-11-02T23:09:29.092Z,97883.75
2022-11-02T23:14:32.415Z,97884.22
2022-11-02T23:19:38.263Z,97891.84
2022-11-02T23:25:00.918Z,97879.38
2022-11-02T23:30:21.545Z,97872.81
2022-11-02T23:35:43.959Z,97864.59
2022-11-02T23:40:47.299Z,97861.91
2022-11-02T23:45:50.709Z,97862.75
2022-11-02T23:51:15.370Z,97856.69
2022-11-02T23:56:36.319Z,97854.25
